createdAt,value
2023-05-01T00:00:50.505Z,20.20
2023-05-01T00:04:13.136Z,20.20
2023-05-01T00:07:35.845Z,20.20
2023-05-01T00:11:02.294Z,20.20
2023-05-01T00:14:24.614Z,20.20
2023-05-01T00:17:47.026Z,20.20
2023-05-01T00:21:09.491Z,20.20
2023-05-01T00:24:31.688Z,20.20
2023-05-01T00:27:54.126Z,20.20
2023-05-01T00:31:16.428Z,20.20
2023-05-01T00:34:38.674Z,20.20
2023-05-01T00:38:01.026Z,20.20
2023-05-01T00:41:23.281Z,20.20
2023-05-01T00:44:45.540Z,20.20
2023-05-01T00:48:09.379Z,20.20
2023-05-01T00:51:31.919Z,20.20
2023-05-01T00:54:55.088Z,20.20
2023-05-01T00:58:18.708Z,20.20
2023-05-01T01:01:42.652Z,20.20
2023-05-01T01:05:05.405Z,20.20
2023-05-01T01:08:33.803Z,20.20
2023-05-01T01:12:19.115Z,20.20
2023-05-01T01:16:12.483Z,20.20
2023-05-01T01:20:03.913Z,20.10
2023-05-01T01:23:51.538Z,20.20
2023-05-01T01:27:23.215Z,20.10
2023-05-01T01:31:04.328Z,20.10
2023-05-01T01:34:51.816Z,20.10
2023-05-01T01:38:19.969Z,20.10
2023-05-01T01:41:47.910Z,20.10
2023-05-01T01:45:19.373Z,20.10
2023-05-01T01:48:45.751Z,20.10
2023-05-01T01:52:13.069Z,20.10
2023-05-01T01:55:36.850Z,20.10
2023-05-01T01:59:02.426Z,20.10
2023-05-01T02:02:27.526Z,20.10
2023-05-01T02:05:52.250Z,20.10
2023-05-01T02:09:18.245Z,20.10
2023-05-01T02:12:42.593Z,20.10
2023-05-01T02:16:06.263Z,20.10
2023-05-01T02:19:29.530Z,20.10
2023-05-01T02:22:53.688Z,20.10
2023-05-01T02:26:18.242Z,20.10
2023-05-01T02:29:40.525Z,20.10
2023-05-01T02:33:03.145Z,20.10
2023-05-01T02:36:25.599Z,20.00
2023-05-01T02:39:48.752Z,20.00
2023-05-01T02:43:13.864Z,20.00
2023-05-01T02:46:37.172Z,20.00
2023-05-01T02:50:01.709Z,20.00
2023-05-01T02:53:24.166Z,20.10
2023-05-01T02:56:52.292Z,20.00
2023-05-01T03:00:14.593Z,20.00
2023-05-01T03:03:37.453Z,20.10
2023-05-01T03:06:59.731Z,20.10
2023-05-01T03:10:22.336Z,20.00
2023-05-01T03:13:44.700Z,20.00
2023-05-01T03:17:07.098Z,20.00
2023-05-01T03:20:30.014Z,20.10
2023-05-01T03:23:52.281Z,20.00
2023-05-01T03:27:14.745Z,20.00
2023-05-01T03:30:37.029Z,20.00
2023-05-01T03:34:02.112Z,20.00
2023-05-01T03:37:24.812Z,20.00
2023-05-01T03:40:47.429Z,20.00
2023-05-01T03:44:27.969Z,20.00
2023-05-01T03:47:50.423Z,20.00
2023-05-01T03:51:13.290Z,20.00
2023-05-01T03:54:35.962Z,20.00
2023-05-01T03:58:11.016Z,20.00
2023-05-01T04:01:34.066Z,20.00
2023-05-01T04:04:56.411Z,20.00
2023-05-01T04:08:19.164Z,20.00
2023-05-01T04:11:41.513Z,20.00
2023-05-01T04:15:04.235Z,20.00
2023-05-01T04:18:26.807Z,20.00
2023-05-01T04:21:55.179Z,20.00
2023-05-01T04:25:17.682Z,20.00
2023-05-01T04:28:41.386Z,20.00
2023-05-01T04:32:05.790Z,20.00
2023-05-01T04:35:28.156Z,20.00
2023-05-01T04:38:50.960Z,20.00
2023-05-01T04:42:13.443Z,20.00
2023-05-01T04:45:35.988Z,20.00
2023-05-01T04:48:58.535Z,20.00
2023-05-01T04:52:20.831Z,20.00
2023-05-01T04:55:50.786Z,19.90
2023-05-01T04:59:13.707Z,19.90
2023-05-01T05:02:36.121Z,20.00
2023-05-01T05:05:58.898Z,19.90
2023-05-01T05:09:21.368Z,19.90
2023-05-01T05:12:43.564Z,19.90
2023-05-01T05:16:06.254Z,19.90
2023-05-01T05:19:28.990Z,19.90
2023-05-01T05:22:51.574Z,19.90
2023-05-01T05:26:18.170Z,19.90
2023-05-01T05:29:40.436Z,19.90
2023-05-01T05:33:03.578Z,19.90
2023-05-01T05:36:27.745Z,19.90
2023-05-01T05:39:50.800Z,19.90
2023-05-01T05:43:13.354Z,19.90
2023-05-01T05:46:35.641Z,19.90
2023-05-01T05:49:58.258Z,19.90
2023-05-01T05:53:22.469Z,19.90
2023-05-01T05:56:46.666Z,19.90
2023-05-01T06:00:10.552Z,19.90
2023-05-01T06:03:39.437Z,19.90
2023-05-01T06:07:01.992Z,20.00
2023-05-01T06:10:24.822Z,19.90
2023-05-01T06:13:47.129Z,20.00
2023-05-01T06:17:09.537Z,20.00
2023-05-01T06:20:32.623Z,20.00
2023-05-01T06:23:54.968Z,19.90
2023-05-01T06:27:27.607Z,20.00
2023-05-01T06:30:50.688Z,20.00
2023-05-01T06:34:15.067Z,20.00
2023-05-01T06:37:42.853Z,20.00
2023-05-01T06:41:07.217Z,19.90
2023-05-01T06:44:31.513Z,20.00
2023-05-01T06:47:56.744Z,20.00
2023-05-01T06:51:19.311Z,20.00
2023-05-01T06:54:41.905Z,20.00
2023-05-01T06:58:12.668Z,19.90
2023-05-01T07:01:45.657Z,20.00
2023-05-01T07:05:08.031Z,20.00
2023-05-01T07:08:30.772Z,20.00
2023-05-01T07:11:53.117Z,20.00
2023-05-01T07:15:16.427Z,20.00
2023-05-01T07:18:38.798Z,20.00
2023-05-01T07:22:01.114Z,20.00
2023-05-01T07:25:23.521Z,20.00
2023-05-01T07:28:45.802Z,20.00
2023-05-01T07:32:08.208Z,20.00
2023-05-01T07:35:30.468Z,20.00
2023-05-01T07:38:52.680Z,20.00
2023-05-01T07:42:15.357Z,20.00
2023-05-01T07:45:41.376Z,20.00
2023-05-01T07:49:04.329Z,20.00
2023-05-01T07:52:26.862Z,20.00
2023-05-01T07:55:49.829Z,20.00
2023-05-01T07:59:13.221Z,20.00
2023-05-01T08:02:36.944Z,20.00
2023-05-01T08:05:59.524Z,20.00
2023-05-01T08:09:22.035Z,20.10
2023-05-01T08:12:44.336Z,20.10
2023-05-01T08:16:06.789Z,20.10
2023-05-01T08:19:29.200Z,20.10
2023-05-01T08:22:51.492Z,20.20
2023-05-01T08:26:13.905Z,20.20
2023-05-01T08:29:36.093Z,20.20
2023-05-01T08:32:58.391Z,20.20
2023-05-01T08:36:21.370Z,20.20
2023-05-01T08:39:43.801Z,20.20
2023-05-01T08:43:06.227Z,20.20
2023-05-01T08:46:48.545Z,20.20
2023-05-01T08:50:14.812Z,20.10
2023-05-01T08:53:38.602Z,20.20
2023-05-01T08:57:04.613Z,20.20
2023-05-01T09:00:28.479Z,20.20
2023-05-01T09:03:52.959Z,20.20
2023-05-01T09:07:16.212Z,20.20
2023-05-01T09:10:44.408Z,20.20
2023-05-01T09:14:08.539Z,20.20
2023-05-01T09:17:32.424Z,20.20
2023-05-01T09:20:55.406Z,20.20
2023-05-01T09:24:17.811Z,20.20
2023-05-01T09:27:40.073Z,20.20
2023-05-01T09:31:21.039Z,20.20
2023-05-01T09:34:44.716Z,20.30
2023-05-01T09:38:07.570Z,20.20
2023-05-01T09:41:32.944Z,20.30
2023-05-01T09:44:55.391Z,20.20
2023-05-01T09:48:17.665Z,20.20
2023-05-01T09:51:39.872Z,20.20
2023-05-01T09:55:17.917Z,20.30
2023-05-01T09:58:40.353Z,20.20
2023-05-01T10:02:02.691Z,20.20
2023-05-01T10:05:25.153Z,20.30
2023-05-01T10:08:50.985Z,20.20
2023-05-01T10:12:24.503Z,20.30
2023-05-01T10:15:46.920Z,20.30
2023-05-01T10:19:10.477Z,20.40
2023-05-01T10:22:32.749Z,20.40
2023-05-01T10:25:56.827Z,20.40
2023-05-01T10:29:23.440Z,20.40
2023-05-01T10:32:47.118Z,20.40
2023-05-01T10:36:21.256Z,20.40
2023-05-01T10:39:43.475Z,20.40
2023-05-01T10:43:17.876Z,20.50
2023-05-01T10:46:40.337Z,20.40
2023-05-01T10:50:09.563Z,20.40
2023-05-01T10:53:31.975Z,20.50
2023-05-01T10:56:56.381Z,20.50
2023-05-01T11:00:19.093Z,20.50
2023-05-01T11:03:41.328Z,20.50
2023-05-01T11:07:08.487Z,20.50
2023-05-01T11:10:31.774Z,20.50
2023-05-01T11:14:05.212Z,20.50
2023-05-01T11:17:43.112Z,20.50
2023-05-01T11:21:05.786Z,20.50
2023-05-01T11:24:34.216Z,20.50
2023-05-01T11:28:02.209Z,20.60
2023-05-01T11:31:26.788Z,20.60
2023-05-01T11:34:50.208Z,20.60
2023-05-01T11:38:18.958Z,20.60
2023-05-01T11:41:41.113Z,20.60
2023-05-01T11:45:12.709Z,20.60
2023-05-01T11:48:35.144Z,20.50
2023-05-01T11:51:58.412Z,20.60
2023-05-01T11:55:32.409Z,20.50
2023-05-01T11:58:56.187Z,20.60
2023-05-01T12:02:20.376Z,20.60
2023-05-01T12:05:46.030Z,20.60
2023-05-01T12:09:08.908Z,20.60
2023-05-01T12:12:32.149Z,20.50
2023-05-01T12:15:56.028Z,20.60
2023-05-01T12:19:18.431Z,20.60
2023-05-01T12:22:50.880Z,20.60
2023-05-01T12:26:17.419Z,20.60
2023-05-01T12:29:41.333Z,20.60
2023-05-01T12:33:18.050Z,20.60
2023-05-01T12:36:40.498Z,20.60
2023-05-01T12:40:03.784Z,20.60
2023-05-01T12:43:33.439Z,20.60
2023-05-01T12:47:00.108Z,20.60
2023-05-01T12:50:22.373Z,20.60
2023-05-01T12:53:44.918Z,20.60
2023-05-01T12:57:09.627Z,20.60
2023-05-01T13:00:52.525Z,20.60
2023-05-01T13:04:25.377Z,20.60
2023-05-01T13:07:49.722Z,20.60
2023-05-01T13:11:14.167Z,20.60
2023-05-01T13:14:38.610Z,20.70
2023-05-01T13:18:05.510Z,20.60
2023-05-01T13:21:28.078Z,20.70
2023-05-01T13:24:51.101Z,20.60
2023-05-01T13:28:19.618Z,20.70
2023-05-01T13:31:46.098Z,20.70
2023-05-01T13:35:08.790Z,20.70
2023-05-01T13:38:34.624Z,20.70
2023-05-01T13:41:56.885Z,20.70
2023-05-01T13:45:21.198Z,20.70
2023-05-01T13:48:44.616Z,20.70
2023-05-01T13:52:06.870Z,20.70
2023-05-01T13:55:29.277Z,20.70
2023-05-01T13:58:51.603Z,20.70
2023-05-01T14:02:20.025Z,20.70
2023-05-01T14:05:42.595Z,20.70
2023-05-01T14:09:05.766Z,20.70
2023-05-01T14:12:32.021Z,20.70
2023-05-01T14:15:54.290Z,20.80
2023-05-01T14:19:18.192Z,20.80
2023-05-01T14:22:45.009Z,20.70
2023-05-01T14:26:08.318Z,20.70
2023-05-01T14:29:30.691Z,20.70
2023-05-01T14:32:53.413Z,20.70
2023-05-01T14:36:18.800Z,20.80
2023-05-01T14:39:41.166Z,20.80
2023-05-01T14:43:03.625Z,20.80
2023-05-01T14:46:37.180Z,20.80
2023-05-01T14:49:59.545Z,20.80
2023-05-01T14:53:21.762Z,20.80
2023-05-01T14:56:44.990Z,20.80
2023-05-01T15:00:08.166Z,20.80
2023-05-01T15:03:31.169Z,20.80
2023-05-01T15:06:53.792Z,20.80
2023-05-01T15:10:16.447Z,20.80
2023-05-01T15:13:39.792Z,20.80
2023-05-01T15:17:02.413Z,20.80
2023-05-01T15:20:24.655Z,20.80
2023-05-01T15:23:46.945Z,20.80
2023-05-01T15:27:09.300Z,20.80
2023-05-01T15:30:32.038Z,20.80
2023-05-01T15:33:54.323Z,20.80
2023-05-01T15:37:17.108Z,20.80
2023-05-01T15:40:39.476Z,20.80
2023-05-01T15:44:01.936Z,20.80
2023-05-01T15:47:24.444Z,20.80
2023-05-01T15:50:48.820Z,20.80
2023-05-01T15:54:11.595Z,20.80
2023-05-01T15:57:34.871Z,20.80
2023-05-01T16:00:57.147Z,20.80
2023-05-01T16:04:19.436Z,20.80
2023-05-01T16:07:41.684Z,20.80
2023-05-01T16:11:04.250Z,20.80
2023-05-01T16:14:26.745Z,20.80
2023-05-01T16:17:51.319Z,20.80
2023-05-01T16:21:19.853Z,20.90
2023-05-01T16:24:42.413Z,20.80
2023-05-01T16:28:06.393Z,20.80
2023-05-01T16:31:34.142Z,20.80
2023-05-01T16:34:56.501Z,20.80
2023-05-01T16:38:19.293Z,20.80
2023-05-01T16:41:46.568Z,20.80
2023-05-01T16:45:09.531Z,20.80
2023-05-01T16:48:34.509Z,20.80
2023-05-01T16:51:58.312Z,20.80
2023-05-01T16:55:21.208Z,20.80
2023-05-01T16:58:43.949Z,20.90
2023-05-01T17:02:07.106Z,20.90
2023-05-01T17:05:29.452Z,21.00
2023-05-01T17:08:51.737Z,21.00
2023-05-01T17:12:14.955Z,21.00
2023-05-01T17:15:37.259Z,21.10
2023-05-01T17:18:59.590Z,21.10
2023-05-01T17:22:23.479Z,21.10
2023-05-01T17:25:45.825Z,21.20
2023-05-01T17:29:08.133Z,21.10
2023-05-01T17:32:37.114Z,21.10
2023-05-01T17:36:00.717Z,21.10
2023-05-01T17:39:23.162Z,21.10
2023-05-01T17:42:45.492Z,21.00
2023-05-01T17:46:07.811Z,21.00
2023-05-01T17:49:30.064Z,21.00
2023-05-01T17:52:52.646Z,21.00
2023-05-01T17:56:14.902Z,20.90
2023-05-01T17:59:37.210Z,20.90
2023-05-01T18:02:59.863Z,20.90
2023-05-01T18:06:22.325Z,20.90
2023-05-01T18:09:44.626Z,20.90
2023-05-01T18:13:06.933Z,20.90
2023-05-01T18:16:29.232Z,20.90
2023-05-01T18:19:51.561Z,20.80
2023-05-01T18:23:13.854Z,20.90
2023-05-01T18:26:36.301Z,20.80
2023-05-01T18:29:58.926Z,20.80
2023-05-01T18:33:21.698Z,20.80
2023-05-01T18:36:43.921Z,20.80
2023-05-01T18:40:08.214Z,20.80
2023-05-01T18:43:32.064Z,20.80
2023-05-01T18:46:54.603Z,20.80
2023-05-01T18:50:21.550Z,20.80
2023-05-01T18:53:43.845Z,20.70
2023-05-01T18:57:06.563Z,20.70
2023-05-01T19:00:29.711Z,20.80
2023-05-01T19:03:51.972Z,20.70
2023-05-01T19:07:15.048Z,20.70
2023-05-01T19:10:37.427Z,20.70
2023-05-01T19:13:59.676Z,20.70
2023-05-01T19:17:22.056Z,20.70
2023-05-01T19:20:45.890Z,20.70
2023-05-01T19:24:08.373Z,20.70
2023-05-01T19:27:31.291Z,20.60
2023-05-01T19:30:53.502Z,20.60
2023-05-01T19:34:15.905Z,20.60
2023-05-01T19:37:39.714Z,20.70
2023-05-01T19:41:02.015Z,20.70
2023-05-01T19:44:24.263Z,20.70
2023-05-01T19:47:46.571Z,20.70
2023-05-01T19:51:08.827Z,20.70
2023-05-01T19:54:31.253Z,20.70
2023-05-01T19:57:53.489Z,20.70
2023-05-01T20:01:15.718Z,20.70
2023-05-01T20:04:38.100Z,20.70
2023-05-01T20:08:01.973Z,20.70
2023-05-01T20:11:24.207Z,20.70
2023-05-01T20:14:46.494Z,20.60
2023-05-01T20:18:09.283Z,20.70
2023-05-01T20:21:32.642Z,20.70
2023-05-01T20:24:54.878Z,20.70
2023-05-01T20:28:17.699Z,20.60
2023-05-01T20:31:39.990Z,20.70
2023-05-01T20:35:02.551Z,20.70
2023-05-01T20:38:24.936Z,20.60
2023-05-01T20:41:47.764Z,20.60
2023-05-01T20:45:10.156Z,20.60
2023-05-01T20:48:33.014Z,20.60
2023-05-01T20:51:56.873Z,20.60
2023-05-01T20:55:19.573Z,20.60
2023-05-01T20:58:41.810Z,20.60
2023-05-01T21:02:05.060Z,20.60
2023-05-01T21:05:27.668Z,20.60
2023-05-01T21:08:49.949Z,20.50
2023-05-01T21:12:12.880Z,20.60
2023-05-01T21:15:35.300Z,20.60
2023-05-01T21:18:57.593Z,20.50
2023-05-01T21:22:23.485Z,20.50
2023-05-01T21:25:45.830Z,20.50
2023-05-01T21:29:08.226Z,20.40
2023-05-01T21:32:37.234Z,20.40
2023-05-01T21:35:59.612Z,20.40
2023-05-01T21:39:24.769Z,20.40
2023-05-01T21:42:47.376Z,20.40
2023-05-01T21:46:17.311Z,20.40
2023-05-01T21:49:39.983Z,20.40
2023-05-01T21:53:02.538Z,20.40
2023-05-01T21:56:25.065Z,20.40
2023-05-01T21:59:48.277Z,20.40
2023-05-01T22:03:10.903Z,20.40
2023-05-01T22:06:33.237Z,20.40
2023-05-01T22:09:55.558Z,20.40
2023-05-01T22:13:17.786Z,20.40
2023-05-01T22:16:41.437Z,20.40
2023-05-01T22:20:08.303Z,20.40
2023-05-01T22:23:30.547Z,20.40
2023-05-01T22:26:52.800Z,20.40
2023-05-01T22:30:15.091Z,20.30
2023-05-01T22:33:37.573Z,20.40
2023-05-01T22:36:59.976Z,20.30
2023-05-01T22:40:22.859Z,20.30
2023-05-01T22:43:45.098Z,20.30
2023-05-01T22:47:07.298Z,20.30
2023-05-01T22:50:29.516Z,20.30
2023-05-01T22:53:51.705Z,20.30
2023-05-01T22:57:13.997Z,20.30
2023-05-01T23:00:36.642Z,20.30
2023-05-01T23:03:59.032Z,20.30
2023-05-01T23:07:21.366Z,20.30
2023-05-01T23:10:43.679Z,20.20
2023-05-01T23:14:06.326Z,20.30
2023-05-01T23:17:34.649Z,20.20
2023-05-01T23:20:57.200Z,20.20
2023-05-01T23:24:21.160Z,20.20
2023-05-01T23:27:48.614Z,20.20
2023-05-01T23:31:18.785Z,20.20
2023-05-01T23:34:43.284Z,20.20
2023-05-01T23:38:05.519Z,20.20
2023-05-01T23:41:28.611Z,20.20
2023-05-01T23:44:51.203Z,20.20
2023-05-01T23:48:14.019Z,20.20
2023-05-01T23:51:37.197Z,20.20
2023-05-01T23:54:59.468Z,20.10
2023-05-01T23:58:21.727Z,20.20
